PWSweather.com
Personal Weather Stations
Station Observations
UPSTATEWEATHER
Silver Leaf, Greer, SC 29650

Silver LeafGreer, SC 29650

Lat: 34.8955792, Lon: -82.2868211

Elevation: 875

Station Type: Davis Vantage Vue

https://www.upstateweather.com

High Low Average
Temperature 88.8°F31.6°C 69.8°F21.0°C 79.4°F26.3°C
Dew Point 76.4°F24.7°C 68.3°F20.2°C 72.5°F22.5°C
Winds 1.2 mph 1.9 kmh Calm Calm Calm NCalm N
Wind Gusts 3.5 mph5.6 kmh -- --
Humidity 95% 62% 81%
Pressure 29.97 in1014.9 mb 29.89 in1012.2 mb -
Precipitation 0.00 in0.0 mm - -
Hour Temp Dew Point Humidity Winds Wind Gusts Pressure Precip Precip Rate Daily Precip Total
12:00 AM 75.1°F23.9°C 71.3°F21.8°C 88% Calm Calm -- 29.93 in1013.5 mb - 0.00 in0.0 mm 0.00 in0.0 mm
12:15 AM 74.9°F23.8°C 70.8°F21.6°C 87% Calm Calm -- 29.92 in1013.2 mb - 0.00 in0.0 mm 0.00 in0.0 mm
12:30 AM 74.9°F23.8°C 71.1°F21.7°C 88% Calm Calm -- 29.92 in1013.2 mb - 0.00 in0.0 mm 0.00 in0.0 mm
12:45 AM 74.8°F23.8°C 71.0°F21.7°C 88% Calm Calm -- 29.92 in1013.2 mb - 0.00 in0.0 mm 0.00 in0.0 mm
01:00 AM 74.4°F23.6°C 70.6°F21.4°C 88% Calm Calm -- 29.92 in1013.2 mb - 0.00 in0.0 mm 0.00 in0.0 mm
01:15 AM 74.1°F23.4°C 70.6°F21.4°C 89% Calm Calm -- 29.92 in1013.2 mb - 0.00 in0.0 mm 0.00 in0.0 mm
01:30 AM 73.8°F23.2°C 70.6°F21.4°C 90% Calm Calm -- 29.91 in1012.9 mb - 0.00 in0.0 mm 0.00 in0.0 mm
01:45 AM 73.3°F22.9°C 70.2°F21.2°C 90% Calm Calm -- 29.91 in1012.9 mb - 0.00 in0.0 mm 0.00 in0.0 mm
02:00 AM 73.0°F22.8°C 70.2°F21.2°C 91% Calm Calm -- 29.91 in1012.9 mb - 0.00 in0.0 mm 0.00 in0.0 mm
02:15 AM 72.5°F22.5°C 70.0°F21.1°C 92% Calm Calm -- 29.91 in1012.9 mb - 0.00 in0.0 mm 0.00 in0.0 mm
02:30 AM 72.0°F22.2°C 69.9°F21.1°C 93% Calm Calm -- 29.91 in1012.9 mb - 0.00 in0.0 mm 0.00 in0.0 mm
02:45 AM 71.9°F22.2°C 70.1°F21.2°C 94% Calm Calm -- 29.91 in1012.9 mb - 0.00 in0.0 mm 0.00 in0.0 mm
03:00 AM 71.8°F22.1°C 70.0°F21.1°C 94% Calm Calm -- 29.92 in1013.2 mb - 0.00 in0.0 mm 0.00 in0.0 mm
03:15 AM 71.6°F22.0°C 69.5°F20.8°C 93% Calm Calm -- 29.92 in1013.2 mb - 0.00 in0.0 mm 0.00 in0.0 mm
03:30 AM 71.6°F22.0°C 69.8°F21.0°C 94% Calm Calm -- 29.92 in1013.2 mb - 0.00 in0.0 mm 0.00 in0.0 mm
03:45 AM 71.5°F21.9°C 69.7°F20.9°C 94% Calm Calm -- 29.92 in1013.2 mb - 0.00 in0.0 mm 0.00 in0.0 mm
04:00 AM 71.1°F21.7°C 69.3°F20.7°C 94% Calm Calm -- 29.92 in1013.2 mb - 0.00 in0.0 mm 0.00 in0.0 mm
04:15 AM 70.8°F21.6°C 69.0°F20.6°C 94% Calm Calm -- 29.92 in1013.2 mb - 0.00 in0.0 mm 0.00 in0.0 mm
04:30 AM 70.8°F21.6°C 69.0°F20.6°C 94% Calm Calm -- 29.92 in1013.2 mb - 0.00 in0.0 mm 0.00 in0.0 mm
04:45 AM 70.6°F21.4°C 68.8°F20.4°C 94% Calm Calm -- 29.93 in1013.5 mb - 0.00 in0.0 mm 0.00 in0.0 mm
05:00 AM 70.2°F21.2°C 68.7°F20.4°C 95% Calm Calm -- 29.92 in1013.2 mb - 0.00 in0.0 mm 0.00 in0.0 mm
05:15 AM 70.1°F21.2°C 68.6°F20.3°C 95% Calm Calm -- 29.93 in1013.5 mb - 0.00 in0.0 mm 0.00 in0.0 mm
05:30 AM 70.0°F21.1°C 68.5°F20.3°C 95% Calm Calm -- 29.93 in1013.5 mb - 0.00 in0.0 mm 0.00 in0.0 mm
05:45 AM 69.8°F21.0°C 68.3°F20.2°C 95% Calm Calm -- 29.93 in1013.5 mb - 0.00 in0.0 mm 0.00 in0.0 mm
06:00 AM 69.8°F21.0°C 68.3°F20.2°C 95% Calm Calm -- 29.93 in1013.5 mb - 0.00 in0.0 mm 0.00 in0.0 mm
06:15 AM 69.8°F21.0°C 68.3°F20.2°C 95% Calm Calm -- 29.94 in1013.9 mb - 0.00 in0.0 mm 0.00 in0.0 mm
06:30 AM 69.8°F21.0°C 68.3°F20.2°C 95% Calm Calm -- 29.94 in1013.9 mb - 0.00 in0.0 mm 0.00 in0.0 mm
07:00 AM 70.3°F21.3°C 68.8°F20.4°C 95% Calm Calm -- 29.94 in1013.9 mb - 0.00 in0.0 mm 0.00 in0.0 mm
07:15 AM 70.9°F21.6°C 69.4°F20.8°C 95% Calm Calm -- 29.95 in1014.2 mb - 0.00 in0.0 mm 0.00 in0.0 mm
07:30 AM 71.6°F22.0°C 69.8°F21.0°C 94% Calm Calm -- 29.95 in1014.2 mb - 0.00 in0.0 mm 0.00 in0.0 mm
07:45 AM 72.9°F22.7°C 70.7°F21.5°C 93% Calm Calm -- 29.95 in1014.2 mb - 0.00 in0.0 mm 0.00 in0.0 mm
08:00 AM 74.2°F23.4°C 71.4°F21.9°C 91% Calm Calm -- 29.96 in1014.6 mb - 0.00 in0.0 mm 0.00 in0.0 mm
08:15 AM 76.2°F24.6°C 72.1°F22.3°C 87% Calm Calm -- 29.96 in1014.6 mb - 0.00 in0.0 mm 0.00 in0.0 mm
08:30 AM 78.0°F25.6°C 73.1°F22.8°C 85% Calm Calm -- 29.96 in1014.6 mb - 0.00 in0.0 mm 0.00 in0.0 mm
08:45 AM 79.4°F26.3°C 72.4°F22.4°C 79% Calm Calm -- 29.96 in1014.6 mb - 0.00 in0.0 mm 0.00 in0.0 mm
09:00 AM 81.2°F27.3°C 72.6°F22.6°C 75% Calm Calm -- 29.96 in1014.6 mb - 0.00 in0.0 mm 0.00 in0.0 mm
09:15 AM 82.4°F28.0°C 72.0°F22.2°C 71% Calm Calm 1.2 mph1.9 kmh 29.96 in1014.6 mb - 0.00 in0.0 mm 0.00 in0.0 mm
09:30 AM 83.8°F28.8°C 73.3°F22.9°C 71% Calm Calm 1.2 mph1.9 kmh 29.96 in1014.6 mb - 0.00 in0.0 mm 0.00 in0.0 mm
09:45 AM 83.8°F28.8°C 72.1°F22.3°C 68% 1.2 mph N1.9 kmh N 3.5 mph5.6 kmh 29.97 in1014.9 mb - 0.00 in0.0 mm 0.00 in0.0 mm
10:00 AM 84.7°F29.3°C 72.1°F22.3°C 66% Calm Calm 1.2 mph1.9 kmh 29.96 in1014.6 mb - 0.00 in0.0 mm 0.00 in0.0 mm
10:15 AM 84.8°F29.3°C 74.0°F23.3°C 70% Calm Calm 1.2 mph1.9 kmh 29.96 in1014.6 mb - 0.00 in0.0 mm 0.00 in0.0 mm
10:30 AM 85.3°F29.6°C 74.0°F23.3°C 69% Calm Calm -- 29.96 in1014.6 mb - 0.00 in0.0 mm 0.00 in0.0 mm
10:45 AM 85.3°F29.6°C 74.8°F23.8°C 71% 1.2 mph N1.9 kmh N 2.3 mph3.7 kmh 29.96 in1014.6 mb - 0.00 in0.0 mm 0.00 in0.0 mm
11:00 AM 85.9°F29.9°C 75.0°F23.9°C 70% Calm Calm 1.2 mph1.9 kmh 29.95 in1014.2 mb - 0.00 in0.0 mm 0.00 in0.0 mm
11:15 AM 86.3°F30.2°C 74.5°F23.6°C 68% 1.2 mph N1.9 kmh N 1.2 mph1.9 kmh 29.96 in1014.6 mb - 0.00 in0.0 mm 0.00 in0.0 mm
11:30 AM 86.6°F30.3°C 74.4°F23.6°C 67% 1.2 mph N1.9 kmh N 2.3 mph3.7 kmh 29.96 in1014.6 mb - 0.00 in0.0 mm 0.00 in0.0 mm
11:45 AM 87.2°F30.7°C 73.5°F23.1°C 64% 1.2 mph N1.9 kmh N 2.3 mph3.7 kmh 29.95 in1014.2 mb - 0.00 in0.0 mm 0.00 in0.0 mm
12:00 PM 88.0°F31.1°C 74.3°F23.5°C 64% Calm Calm 1.2 mph1.9 kmh 29.95 in1014.2 mb - 0.00 in0.0 mm 0.00 in0.0 mm
12:15 PM 88.0°F31.1°C 73.8°F23.2°C 63% Calm Calm -- 29.95 in1014.2 mb - 0.00 in0.0 mm 0.00 in0.0 mm
12:30 PM 86.3°F30.2°C 75.4°F24.1°C 70% Calm Calm 1.2 mph1.9 kmh 29.94 in1013.9 mb - 0.00 in0.0 mm 0.00 in0.0 mm
12:45 PM 87.2°F30.7°C 74.9°F23.8°C 67% Calm Calm -- 29.94 in1013.9 mb - 0.00 in0.0 mm 0.00 in0.0 mm
01:00 PM 86.2°F30.1°C 75.3°F24.1°C 70% Calm Calm -- 29.95 in1014.2 mb - 0.00 in0.0 mm 0.00 in0.0 mm
01:15 PM 85.5°F29.7°C 74.6°F23.7°C 70% Calm Calm -- 29.94 in1013.9 mb - 0.00 in0.0 mm 0.00 in0.0 mm
01:30 PM 85.2°F29.6°C 75.6°F24.2°C 73% Calm Calm -- 29.94 in1013.9 mb - 0.00 in0.0 mm 0.00 in0.0 mm
01:45 PM 87.1°F30.6°C 73.5°F23.1°C 64% Calm Calm 1.2 mph1.9 kmh 29.94 in1013.9 mb - 0.00 in0.0 mm 0.00 in0.0 mm
02:30 PM 87.0°F30.6°C 75.6°F24.2°C 69% 1.2 mph N1.9 kmh N -- 29.92 in1013.2 mb - 0.00 in0.0 mm 0.00 in0.0 mm
02:45 PM 87.3°F30.7°C 74.1°F23.4°C 65% 1.2 mph N1.9 kmh N 1.2 mph1.9 kmh 29.91 in1012.9 mb - 0.00 in0.0 mm 0.00 in0.0 mm
03:00 PM 88.4°F31.3°C 74.2°F23.4°C 63% 1.2 mph N1.9 kmh N 1.2 mph1.9 kmh 29.91 in1012.9 mb - 0.00 in0.0 mm 0.00 in0.0 mm
03:15 PM 87.7°F30.9°C 75.8°F24.3°C 68% Calm Calm -- 29.90 in1012.5 mb - 0.00 in0.0 mm 0.00 in0.0 mm
03:30 PM 86.4°F30.2°C 75.0°F23.9°C 69% Calm Calm -- 29.90 in1012.5 mb - 0.00 in0.0 mm 0.00 in0.0 mm
03:45 PM 86.7°F30.4°C 74.8°F23.8°C 68% Calm Calm -- 29.89 in1012.2 mb - 0.00 in0.0 mm 0.00 in0.0 mm
04:00 PM 88.8°F31.6°C 74.1°F23.4°C 62% Calm Calm -- 29.89 in1012.2 mb - 0.00 in0.0 mm 0.00 in0.0 mm
04:15 PM 87.4°F30.8°C 76.4°F24.7°C 70% Calm Calm -- 29.89 in1012.2 mb - 0.00 in0.0 mm 0.00 in0.0 mm
04:30 PM 86.6°F30.3°C 74.3°F23.5°C 67% Calm Calm -- 29.89 in1012.2 mb - 0.00 in0.0 mm 0.00 in0.0 mm
04:45 PM 85.6°F29.8°C 75.1°F23.9°C 71% Calm Calm -- 29.89 in1012.2 mb - 0.00 in0.0 mm 0.00 in0.0 mm
05:00 PM 85.3°F29.6°C 74.0°F23.3°C 69% Calm Calm -- 29.90 in1012.5 mb - 0.00 in0.0 mm 0.00 in0.0 mm
05:15 PM 85.4°F29.7°C 74.9°F23.8°C 71% Calm Calm -- 29.90 in1012.5 mb - 0.00 in0.0 mm 0.00 in0.0 mm
05:30 PM 85.9°F29.9°C 75.4°F24.1°C 71% Calm Calm -- 29.90 in1012.5 mb - 0.00 in0.0 mm 0.00 in0.0 mm
05:45 PM 85.6°F29.8°C 75.1°F23.9°C 71% Calm Calm -- 29.90 in1012.5 mb - 0.00 in0.0 mm 0.00 in0.0 mm
06:00 PM 85.2°F29.6°C 74.3°F23.5°C 70% Calm Calm -- 29.90 in1012.5 mb - 0.00 in0.0 mm 0.00 in0.0 mm
06:15 PM 85.0°F29.4°C 74.5°F23.6°C 71% Calm Calm -- 29.90 in1012.5 mb - 0.00 in0.0 mm 0.00 in0.0 mm
06:30 PM 84.7°F29.3°C 75.1°F23.9°C 73% Calm Calm -- 29.90 in1012.5 mb - 0.00 in0.0 mm 0.00 in0.0 mm
06:45 PM 84.2°F29.0°C 72.9°F22.7°C 69% Calm Calm -- 29.90 in1012.5 mb - 0.00 in0.0 mm 0.00 in0.0 mm
07:00 PM 83.9°F28.8°C 74.3°F23.5°C 73% Calm Calm -- 29.91 in1012.9 mb - 0.00 in0.0 mm 0.00 in0.0 mm
07:15 PM 83.2°F28.4°C 73.7°F23.2°C 73% Calm Calm -- 29.91 in1012.9 mb - 0.00 in0.0 mm 0.00 in0.0 mm
07:30 PM 82.5°F28.1°C 73.8°F23.2°C 75% Calm Calm -- 29.91 in1012.9 mb - 0.00 in0.0 mm 0.00 in0.0 mm
07:45 PM 82.0°F27.8°C 74.1°F23.4°C 77% Calm Calm -- 29.91 in1012.9 mb - 0.00 in0.0 mm 0.00 in0.0 mm
08:00 PM 81.5°F27.5°C 74.0°F23.3°C 78% Calm Calm -- 29.91 in1012.9 mb - 0.00 in0.0 mm 0.00 in0.0 mm
08:15 PM 80.8°F27.1°C 73.3°F22.9°C 78% Calm Calm -- 29.92 in1013.2 mb - 0.00 in0.0 mm 0.00 in0.0 mm
08:30 PM 80.4°F26.9°C 73.7°F23.2°C 80% Calm Calm -- 29.92 in1013.2 mb - 0.00 in0.0 mm 0.00 in0.0 mm
08:45 PM 79.8°F26.6°C 73.5°F23.1°C 81% Calm Calm -- 29.93 in1013.5 mb - 0.00 in0.0 mm 0.00 in0.0 mm
09:00 PM 79.2°F26.2°C 73.2°F22.9°C 82% Calm Calm -- 29.94 in1013.9 mb - 0.00 in0.0 mm 0.00 in0.0 mm
09:15 PM 78.4°F25.8°C 73.9°F23.3°C 86% Calm Calm -- 29.95 in1014.2 mb - 0.00 in0.0 mm 0.00 in0.0 mm
09:30 PM 77.9°F25.5°C 73.4°F23.0°C 86% Calm Calm -- 29.95 in1014.2 mb - 0.00 in0.0 mm 0.00 in0.0 mm
09:45 PM 77.5°F25.3°C 73.7°F23.2°C 88% Calm Calm -- 29.95 in1014.2 mb - 0.00 in0.0 mm 0.00 in0.0 mm
10:00 PM 77.2°F25.1°C 73.3°F22.9°C 88% Calm Calm -- 29.96 in1014.6 mb - 0.00 in0.0 mm 0.00 in0.0 mm
10:15 PM 77.0°F25.0°C 73.2°F22.9°C 88% Calm Calm -- 29.96 in1014.6 mb - 0.00 in0.0 mm 0.00 in0.0 mm
10:30 PM 76.8°F24.9°C 73.0°F22.8°C 88% Calm Calm 1.1 mph1.8 kmh 29.96 in1014.6 mb - 0.00 in0.0 mm 0.00 in0.0 mm
10:45 PM 76.8°F24.9°C 73.0°F22.8°C 88% Calm Calm -- 29.96 in1014.6 mb - 0.00 in0.0 mm 0.00 in0.0 mm
11:00 PM 76.3°F24.6°C 73.1°F22.8°C 90% Calm Calm -- 29.96 in1014.6 mb - 0.00 in0.0 mm 0.00 in0.0 mm
11:15 PM 76.2°F24.6°C 73.1°F22.8°C 90% Calm Calm -- 29.96 in1014.6 mb - 0.00 in0.0 mm 0.00 in0.0 mm
11:30 PM 76.1°F24.5°C 73.0°F22.8°C 90% Calm Calm -- 29.96 in1014.6 mb - 0.00 in0.0 mm 0.00 in0.0 mm
11:45 PM 76.1°F24.5°C 73.0°F22.8°C 90% Calm Calm -- 29.96 in1014.6 mb - 0.00 in0.0 mm 0.00 in0.0 mm